createdAt,value
2022-11-01T00:02:11.666Z,3.92
2022-11-01T00:04:38.417Z,3.72
2022-11-01T00:07:06.263Z,4.47
2022-11-01T00:09:36.006Z,3.80
2022-11-01T00:12:02.816Z,4.30
2022-11-01T00:14:29.594Z,4.45
2022-11-01T00:16:56.415Z,3.80
2022-11-01T00:19:23.289Z,4.05
2022-11-01T00:21:50.348Z,4.18
2022-11-01T00:24:17.114Z,3.85
2022-11-01T00:26:43.971Z,3.90
2022-11-01T00:29:15.330Z,4.30
2022-11-01T00:31:42.257Z,4.70
2022-11-01T00:34:09.057Z,4.10
2022-11-01T00:36:36.599Z,5.47
2022-11-01T00:39:05.101Z,4.68
2022-11-01T00:41:31.814Z,4.18
2022-11-01T00:43:58.679Z,3.60
2022-11-01T00:46:26.098Z,4.05
2022-11-01T00:48:52.767Z,4.43
2022-11-01T00:51:19.456Z,4.07
2022-11-01T00:53:46.410Z,3.95
2022-11-01T00:56:14.528Z,4.03
2022-11-01T00:58:41.280Z,3.80
2022-11-01T01:01:08.255Z,3.72
2022-11-01T01:03:35.517Z,3.92
2022-11-01T01:06:02.629Z,3.80
2022-11-01T01:08:29.344Z,4.68
2022-11-01T01:10:59.136Z,4.18
2022-11-01T01:13:25.861Z,3.88
2022-11-01T01:15:52.591Z,4.30
2022-11-01T01:18:19.359Z,4.05
2022-11-01T01:20:46.074Z,3.97
2022-11-01T01:23:12.923Z,4.07
2022-11-01T01:25:42.012Z,4.00
2022-11-01T01:28:09.692Z,4.00
2022-11-01T01:30:41.273Z,3.97
2022-11-01T01:33:09.511Z,4.53
2022-11-01T01:35:38.928Z,3.78
2022-11-01T01:38:07.521Z,5.28
2022-11-01T01:40:35.179Z,4.07
2022-11-01T01:43:01.869Z,4.28
2022-11-01T01:45:40.263Z,3.83
2022-11-01T01:48:16.169Z,3.53
2022-11-01T01:51:15.895Z,3.78
2022-11-01T01:53:48.927Z,3.47
2022-11-01T01:56:27.630Z,4.07
2022-11-01T01:59:09.019Z,3.05
2022-11-01T02:01:39.573Z,3.35
2022-11-01T02:04:19.996Z,3.45
2022-11-01T02:06:48.406Z,3.03
2022-11-01T02:09:17.953Z,3.10
2022-11-01T02:11:44.870Z,3.35
2022-11-01T02:14:14.154Z,3.47
2022-11-01T02:17:07.044Z,3.60
2022-11-01T02:20:32.398Z,4.05
2022-11-01T02:23:30.559Z,2.83
2022-11-01T02:26:30.170Z,3.10
2022-11-01T02:29:39.214Z,2.90
2022-11-01T02:33:11.891Z,3.22
2022-11-01T02:36:13.574Z,3.15
2022-11-01T02:38:51.034Z,2.78
2022-11-01T02:41:30.669Z,3.13
2022-11-01T02:44:04.679Z,3.00
2022-11-01T02:46:57.221Z,3.03
2022-11-01T02:49:38.551Z,3.33
2022-11-01T02:52:28.859Z,2.85
2022-11-01T02:54:59.466Z,2.85
2022-11-01T02:57:34.374Z,2.70
2022-11-01T03:00:23.259Z,3.42
2022-11-01T03:03:23.828Z,2.60
2022-11-01T03:06:01.017Z,2.60
2022-11-01T03:08:44.696Z,2.92
2022-11-01T03:11:43.617Z,3.28
2022-11-01T03:14:52.028Z,2.85
2022-11-01T03:17:27.398Z,3.10
2022-11-01T03:20:48.066Z,3.05
2022-11-01T03:23:37.930Z,3.40
2022-11-01T03:26:27.380Z,2.47
2022-11-01T03:29:06.609Z,2.30
2022-11-01T03:31:38.752Z,2.10
2022-11-01T03:34:18.584Z,2.00
2022-11-01T03:37:00.168Z,1.80
2022-11-01T03:39:49.418Z,2.08
2022-11-01T03:42:21.732Z,1.52
2022-11-01T03:45:06.212Z,1.70
2022-11-01T03:47:32.903Z,1.23
2022-11-01T03:50:19.199Z,1.73
2022-11-01T03:52:46.297Z,1.30
2022-11-01T03:55:18.597Z,1.05
2022-11-01T03:57:57.061Z,1.08
2022-11-01T04:00:26.556Z,1.40
2022-11-01T04:03:00.367Z,1.00
2022-11-01T04:05:31.263Z,1.13
2022-11-01T04:07:58.165Z,0.98
2022-11-01T04:10:29.257Z,0.80
2022-11-01T04:12:57.252Z,0.80
2022-11-01T04:15:44.999Z,0.70
2022-11-01T04:18:34.401Z,0.55
2022-11-01T04:21:36.297Z,0.60
2022-11-01T04:24:06.174Z,0.80
2022-11-01T04:26:34.638Z,0.70
2022-11-01T04:29:03.918Z,0.80
2022-11-01T04:31:34.986Z,0.60
2022-11-01T04:34:06.029Z,0.60
2022-11-01T04:36:32.870Z,0.73
2022-11-01T04:38:59.702Z,0.60
2022-11-01T04:41:28.995Z,0.70
2022-11-01T04:43:58.415Z,0.98
2022-11-01T04:46:30.260Z,0.70
2022-11-01T04:48:57.097Z,0.75
2022-11-01T04:51:24.112Z,0.60
2022-11-01T04:53:50.907Z,0.50
2022-11-01T04:56:17.705Z,0.50
2022-11-01T04:58:46.014Z,1.48
2022-11-01T05:01:14.987Z,0.77
2022-11-01T05:03:43.345Z,0.85
2022-11-01T05:06:10.642Z,0.57
2022-11-01T05:08:37.520Z,0.63
2022-11-01T05:11:08.124Z,1.13
2022-11-01T05:13:35.919Z,2.10
2022-11-01T05:16:18.862Z,0.70
2022-11-01T05:18:51.726Z,0.40
2022-11-01T05:21:18.477Z,0.45
2022-11-01T05:23:48.952Z,0.88
2022-11-01T05:26:18.331Z,0.80
2022-11-01T05:28:45.115Z,1.00
2022-11-01T05:31:11.907Z,1.02
2022-11-01T05:33:38.620Z,0.73
2022-11-01T05:36:05.693Z,0.77
2022-11-01T05:38:32.497Z,0.80
2022-11-01T05:41:03.471Z,1.00
2022-11-01T05:43:33.334Z,0.82
2022-11-01T05:46:10.162Z,1.00
2022-11-01T05:48:36.869Z,1.63
2022-11-01T05:51:03.782Z,1.27
2022-11-01T05:53:30.526Z,0.80
2022-11-01T05:55:57.663Z,0.90
2022-11-01T05:58:27.993Z,1.00
2022-11-01T06:01:05.597Z,0.85
2022-11-01T06:03:33.906Z,0.70
2022-11-01T06:06:00.757Z,1.00
2022-11-01T06:08:27.779Z,0.57
2022-11-01T06:11:03.415Z,0.80
2022-11-01T06:13:32.344Z,0.70
2022-11-01T06:16:04.712Z,1.02
2022-11-01T06:18:32.194Z,0.55
2022-11-01T06:21:02.273Z,0.80
2022-11-01T06:23:28.998Z,1.15
2022-11-01T06:26:03.480Z,0.85
2022-11-01T06:28:30.412Z,1.02
2022-11-01T06:31:02.295Z,2.42
2022-11-01T06:33:30.695Z,1.52
2022-11-01T06:35:58.027Z,1.20
2022-11-01T06:38:24.738Z,1.52
2022-11-01T06:40:55.811Z,1.52
2022-11-01T06:43:22.607Z,1.35
2022-11-01T06:45:49.411Z,1.63
2022-11-01T06:48:16.188Z,1.58
2022-11-01T06:50:45.554Z,1.10
2022-11-01T06:53:12.548Z,1.48
2022-11-01T06:55:40.574Z,1.40
2022-11-01T06:58:07.259Z,1.10
2022-11-01T07:00:34.011Z,1.10
2022-11-01T07:03:04.580Z,1.13
2022-11-01T07:05:37.256Z,1.25
2022-11-01T07:08:13.056Z,1.10
2022-11-01T07:10:50.974Z,0.90
2022-11-01T07:13:17.722Z,1.27
2022-11-01T07:15:44.407Z,1.30
2022-11-01T07:18:11.121Z,1.17
2022-11-01T07:20:42.480Z,1.60
2022-11-01T07:23:16.438Z,2.50
2022-11-01T07:25:43.960Z,1.00
2022-11-01T07:28:11.646Z,1.15
2022-11-01T07:31:06.249Z,1.50
2022-11-01T07:33:38.285Z,1.92
2022-11-01T07:36:05.851Z,1.40
2022-11-01T07:38:32.640Z,1.13
2022-11-01T07:41:43.254Z,1.38
2022-11-01T07:44:22.266Z,1.80
2022-11-01T07:46:49.004Z,1.10
2022-11-01T07:49:15.766Z,1.70
2022-11-01T07:51:42.427Z,1.63
2022-11-01T07:54:17.314Z,1.67
2022-11-01T07:56:43.992Z,1.08
2022-11-01T07:59:20.235Z,1.13
2022-11-01T08:01:47.152Z,1.00
2022-11-01T08:04:33.068Z,1.20
2022-11-01T08:06:59.839Z,1.60
2022-11-01T08:09:26.543Z,1.38
2022-11-01T08:11:53.258Z,1.30
2022-11-01T08:14:26.575Z,1.73
2022-11-01T08:16:55.770Z,1.27
2022-11-01T08:19:37.888Z,1.30
2022-11-01T08:22:05.336Z,1.48
2022-11-01T08:24:52.290Z,1.45
2022-11-01T08:27:18.958Z,1.40
2022-11-01T08:29:45.640Z,1.02
2022-11-01T08:32:13.511Z,1.65
2022-11-01T08:34:41.392Z,0.98
2022-11-01T08:37:08.067Z,1.80
2022-11-01T08:39:34.728Z,1.27
2022-11-01T08:42:01.430Z,1.10
2022-11-01T08:44:28.188Z,1.40
2022-11-01T08:46:55.600Z,1.60
2022-11-01T08:49:22.533Z,1.23
2022-11-01T08:51:49.221Z,1.58
2022-11-01T08:54:20.189Z,1.20
2022-11-01T08:57:05.434Z,1.35
2022-11-01T08:59:35.284Z,1.58
2022-11-01T09:02:02.058Z,1.27
2022-11-01T09:04:35.171Z,1.60
2022-11-01T09:07:01.936Z,1.23
2022-11-01T09:09:29.554Z,1.15
2022-11-01T09:11:56.572Z,1.30
2022-11-01T09:14:25.150Z,2.47
2022-11-01T09:16:52.525Z,3.65
2022-11-01T09:19:19.620Z,2.13
2022-11-01T09:21:46.970Z,1.58
2022-11-01T09:24:17.987Z,1.35
2022-11-01T09:26:44.704Z,1.08
2022-11-01T09:29:15.202Z,1.85
2022-11-01T09:31:53.106Z,1.98
2022-11-01T09:34:21.102Z,1.52
2022-11-01T09:36:48.832Z,1.40
2022-11-01T09:39:17.776Z,1.27
2022-11-01T09:41:50.924Z,1.23
2022-11-01T09:44:26.031Z,1.40
2022-11-01T09:47:12.527Z,1.10
2022-11-01T09:50:06.293Z,0.90
2022-11-01T09:52:33.271Z,1.40
2022-11-01T09:55:00.055Z,1.75
2022-11-01T09:57:49.602Z,1.33
2022-11-01T10:00:20.290Z,1.25
2022-11-01T10:03:43.874Z,1.45
2022-11-01T10:06:44.529Z,3.05
2022-11-01T10:09:19.963Z,1.95
2022-11-01T10:12:18.757Z,1.65
2022-11-01T10:15:39.605Z,1.80
2022-11-01T10:18:28.129Z,1.30
2022-11-01T10:21:16.339Z,1.48
2022-11-01T10:23:50.332Z,1.33
2022-11-01T10:26:45.364Z,1.35
2022-11-01T10:29:33.581Z,1.70
2022-11-01T10:32:05.582Z,2.15
2022-11-01T10:34:41.288Z,1.50
2022-11-01T10:37:57.395Z,1.25
2022-11-01T10:40:43.739Z,1.30
2022-11-01T10:43:22.130Z,1.30
2022-11-01T10:45:55.172Z,1.92
2022-11-01T10:48:38.385Z,1.20
2022-11-01T10:51:09.308Z,1.70
2022-11-01T10:53:46.318Z,1.50
2022-11-01T10:56:24.068Z,1.50
2022-11-01T10:59:06.313Z,1.35
2022-11-01T11:01:44.172Z,2.00
2022-11-01T11:04:16.653Z,1.70
2022-11-01T11:06:52.329Z,1.42
2022-11-01T11:09:34.291Z,1.30
2022-11-01T11:12:08.062Z,1.55
2022-11-01T11:14:36.101Z,1.38
2022-11-01T11:17:04.255Z,1.42
2022-11-01T11:19:30.908Z,1.38
2022-11-01T11:22:00.230Z,1.40
2022-11-01T11:24:40.440Z,1.00
2022-11-01T11:27:34.239Z,1.77
2022-11-01T11:30:55.203Z,1.30
2022-11-01T11:33:22.680Z,1.65
2022-11-01T11:36:08.158Z,1.35
2022-11-01T11:38:50.611Z,1.40
2022-11-01T11:41:31.547Z,1.60
2022-11-01T11:44:02.851Z,1.23
2022-11-01T11:46:29.765Z,0.88
2022-11-01T11:49:04.549Z,1.38
2022-11-01T11:51:39.424Z,1.20
2022-11-01T11:54:29.072Z,1.42
2022-11-01T11:57:25.695Z,1.40
2022-11-01T12:00:05.161Z,1.88
2022-11-01T12:02:37.373Z,1.20
2022-11-01T12:05:19.574Z,1.48
2022-11-01T12:07:49.076Z,1.70
2022-11-01T12:10:40.269Z,1.38
2022-11-01T12:13:35.379Z,0.90
2022-11-01T12:16:24.676Z,1.10
2022-11-01T12:18:58.537Z,0.90
2022-11-01T12:21:40.013Z,1.00
2022-11-01T12:24:27.338Z,1.05
2022-11-01T12:27:01.644Z,1.02
2022-11-01T12:29:45.536Z,1.15
2022-11-01T12:32:35.103Z,1.00
2022-11-01T12:35:16.603Z,1.00
2022-11-01T12:38:26.195Z,0.95
2022-11-01T12:40:54.817Z,0.95
2022-11-01T12:43:33.687Z,1.00
2022-11-01T12:46:16.230Z,1.08
2022-11-01T12:49:02.464Z,1.00
2022-11-01T12:51:47.006Z,0.90
2022-11-01T12:54:27.182Z,0.68
2022-11-01T12:56:58.547Z,0.90
2022-11-01T12:59:34.177Z,1.00
2022-11-01T13:02:29.552Z,1.20
2022-11-01T13:05:07.384Z,0.68
2022-11-01T13:08:02.614Z,0.85
2022-11-01T13:10:43.613Z,1.25
2022-11-01T13:13:37.039Z,0.80
2022-11-01T13:16:09.581Z,1.88
2022-11-01T13:18:59.344Z,0.68
2022-11-01T13:21:49.801Z,0.70
2022-11-01T13:24:25.438Z,2.03
2022-11-01T13:27:34.445Z,0.90
2022-11-01T13:30:11.144Z,0.82
2022-11-01T13:33:01.289Z,0.70
2022-11-01T13:35:40.276Z,0.80
2022-11-01T13:38:29.639Z,0.88
2022-11-01T13:41:09.711Z,0.68
2022-11-01T13:43:45.413Z,0.70
2022-11-01T13:46:40.043Z,0.93
2022-11-01T13:49:09.758Z,1.10
2022-11-01T13:52:00.130Z,0.90
2022-11-01T13:54:33.403Z,0.90
2022-11-01T13:57:17.410Z,0.85
2022-11-01T13:59:55.520Z,0.90
2022-11-01T14:02:28.775Z,0.60
2022-11-01T14:05:05.103Z,0.70
2022-11-01T14:07:44.864Z,1.42
2022-11-01T14:10:31.510Z,0.88
2022-11-01T14:13:07.240Z,0.90
2022-11-01T14:15:39.562Z,0.88
2022-11-01T14:18:10.734Z,0.85
2022-11-01T14:20:44.425Z,0.63
2022-11-01T14:23:40.480Z,1.50
2022-11-01T14:26:22.663Z,0.95
2022-11-01T14:28:54.142Z,0.80
2022-11-01T14:31:24.690Z,1.83
2022-11-01T14:33:56.090Z,0.95
2022-11-01T14:36:40.645Z,0.73
2022-11-01T14:39:28.415Z,0.75
2022-11-01T14:41:58.810Z,1.23
2022-11-01T14:44:37.318Z,1.00
2022-11-01T14:47:23.737Z,1.38
2022-11-01T14:49:58.625Z,1.00
2022-11-01T14:52:59.969Z,1.02
2022-11-01T14:55:44.843Z,1.00
2022-11-01T14:58:23.463Z,1.20
2022-11-01T15:00:54.910Z,0.90
2022-11-01T15:03:23.033Z,0.80
2022-11-01T15:06:02.080Z,1.42
2022-11-01T15:08:45.431Z,1.52
2022-11-01T15:11:12.557Z,1.13
2022-11-01T15:13:50.820Z,1.08
2022-11-01T15:16:26.734Z,1.00
2022-11-01T15:18:59.615Z,1.02
2022-11-01T15:21:30.842Z,1.70
2022-11-01T15:23:59.614Z,1.55
2022-11-01T15:26:31.743Z,0.80
2022-11-01T15:29:16.255Z,1.15
2022-11-01T15:32:06.026Z,0.50
2022-11-01T15:34:34.541Z,0.60
2022-11-01T15:37:20.605Z,1.02
2022-11-01T15:39:47.360Z,0.98
2022-11-01T15:42:27.317Z,1.40
2022-11-01T15:44:54.413Z,1.30
2022-11-01T15:47:26.510Z,1.40
2022-11-01T15:50:06.663Z,0.70
2022-11-01T15:52:35.646Z,0.90
2022-11-01T15:55:26.683Z,0.90
2022-11-01T15:58:06.737Z,1.55
2022-11-01T16:00:47.040Z,0.93
2022-11-01T16:03:46.166Z,0.75
2022-11-01T16:06:54.435Z,1.33
2022-11-01T16:09:37.825Z,0.88
2022-11-01T16:12:17.572Z,1.15
2022-11-01T16:15:25.535Z,0.93
2022-11-01T16:17:57.388Z,1.17
2022-11-01T16:20:43.080Z,0.98
2022-11-01T16:23:35.644Z,1.10
2022-11-01T16:26:07.075Z,1.00
2022-11-01T16:28:44.083Z,0.80
2022-11-01T16:31:28.723Z,0.73
2022-11-01T16:34:34.440Z,0.90
2022-11-01T16:37:01.307Z,0.90
2022-11-01T16:39:31.727Z,1.05
2022-11-01T16:41:59.489Z,0.68
2022-11-01T16:44:29.870Z,1.17
2022-11-01T16:46:56.622Z,0.80
2022-11-01T16:49:27.116Z,1.13
2022-11-01T16:51:56.375Z,1.10
2022-11-01T16:54:25.098Z,1.27
2022-11-01T16:56:55.479Z,1.55
2022-11-01T16:59:34.229Z,0.90
2022-11-01T17:02:11.458Z,0.90
2022-11-01T17:04:40.034Z,1.10
2022-11-01T17:07:09.614Z,1.10
2022-11-01T17:09:36.366Z,1.52
2022-11-01T17:12:03.980Z,1.40
2022-11-01T17:14:30.716Z,1.00
2022-11-01T17:16:59.578Z,0.88
2022-11-01T17:19:35.751Z,0.82
2022-11-01T17:22:35.180Z,0.98
2022-11-01T17:25:04.850Z,0.70
2022-11-01T17:27:31.611Z,1.25
2022-11-01T17:29:58.369Z,1.13
2022-11-01T17:32:27.434Z,2.05
2022-11-01T17:34:54.180Z,0.77
2022-11-01T17:37:22.305Z,1.10
2022-11-01T17:39:49.106Z,1.10
2022-11-01T17:42:15.795Z,1.08
2022-11-01T17:44:42.536Z,1.20
2022-11-01T17:47:14.788Z,1.15
2022-11-01T17:49:41.623Z,1.45
2022-11-01T17:52:08.394Z,1.20
2022-11-01T17:54:35.145Z,0.98
2022-11-01T17:57:01.854Z,1.25
2022-11-01T17:59:28.662Z,1.00
2022-11-01T18:01:55.517Z,0.73
2022-11-01T18:04:22.319Z,1.13
2022-11-01T18:06:49.426Z,1.27
2022-11-01T18:09:27.125Z,0.98
2022-11-01T18:12:24.406Z,1.30
2022-11-01T18:14:56.139Z,1.23
2022-11-01T18:17:54.105Z,2.30
2022-11-01T18:20:45.862Z,1.10
2022-11-01T18:23:20.058Z,2.08
2022-11-01T18:25:49.103Z,1.17
2022-11-01T18:28:19.850Z,1.23
2022-11-01T18:30:54.329Z,1.45
2022-11-01T18:34:06.334Z,2.03
2022-11-01T18:37:01.565Z,1.17
2022-11-01T18:40:03.593Z,1.70
2022-11-01T18:42:30.910Z,1.10
2022-11-01T18:45:07.183Z,1.00
2022-11-01T18:47:42.087Z,1.10
2022-11-01T18:50:24.112Z,1.58
2022-11-01T18:53:10.506Z,1.08
2022-11-01T18:55:47.466Z,1.10
2022-11-01T18:58:24.327Z,2.00
2022-11-01T19:01:23.565Z,1.38
2022-11-01T19:04:19.667Z,1.00
2022-11-01T19:06:46.486Z,0.85
2022-11-01T19:09:28.431Z,0.90
2022-11-01T19:12:13.446Z,0.98
2022-11-01T19:14:40.198Z,1.08
2022-11-01T19:17:29.842Z,1.45
2022-11-01T19:19:59.716Z,2.15
2022-11-01T19:22:39.966Z,0.90
2022-11-01T19:25:36.611Z,1.80
2022-11-01T19:28:16.978Z,0.90
2022-11-01T19:30:51.132Z,1.50
2022-11-01T19:33:37.440Z,1.08
2022-11-01T19:36:13.053Z,1.00
2022-11-01T19:38:44.748Z,1.20
2022-11-01T19:41:28.959Z,0.95
2022-11-01T19:44:11.487Z,1.10
2022-11-01T19:46:38.291Z,0.90
2022-11-01T19:49:35.551Z,1.60
2022-11-01T19:52:08.224Z,1.73
2022-11-01T19:54:42.016Z,1.52
2022-11-01T19:59:49.834Z,1.08
2022-11-01T20:02:22.410Z,0.95
2022-11-01T20:04:57.491Z,1.02
2022-11-01T20:07:26.820Z,1.00
2022-11-01T20:09:58.597Z,1.17
2022-11-01T20:12:25.590Z,1.45
2022-11-01T20:14:52.385Z,1.00
2022-11-01T20:17:19.134Z,1.73
2022-11-01T20:19:45.826Z,0.90
2022-11-01T20:22:12.627Z,1.25
2022-11-01T20:24:39.433Z,1.10
2022-11-01T20:27:06.193Z,1.30
2022-11-01T20:29:32.901Z,0.80
2022-11-01T20:32:00.138Z,1.77
2022-11-01T20:34:28.641Z,1.45
2022-11-01T20:37:26.903Z,1.52
2022-11-01T20:39:42.132Z,1.30
2022-11-01T20:42:09.371Z,1.08
2022-11-01T20:44:36.110Z,1.23
2022-11-01T20:47:02.817Z,1.00
2022-11-01T20:49:29.524Z,1.30
2022-11-01T20:52:03.800Z,1.00
2022-11-01T20:54:41.265Z,1.60
2022-11-01T20:57:12.392Z,1.27
2022-11-01T20:59:51.733Z,1.25
2022-11-01T21:02:19.261Z,1.30
2022-11-01T21:04:59.511Z,1.38
2022-11-01T21:07:33.216Z,1.00
2022-11-01T21:10:00.108Z,0.77
2022-11-01T21:12:47.399Z,1.27
2022-11-01T21:15:26.020Z,1.23
2022-11-01T21:18:09.590Z,1.20
2022-11-01T21:20:46.432Z,1.20
2022-11-01T21:23:31.845Z,1.30
2022-11-01T21:26:02.405Z,0.98
2022-11-01T21:28:45.591Z,0.90
2022-11-01T21:31:15.482Z,2.35
2022-11-01T21:33:50.108Z,0.98
2022-11-01T21:36:45.111Z,1.00
2022-11-01T21:39:25.361Z,0.73
2022-11-01T21:42:03.456Z,0.90
2022-11-01T21:44:41.563Z,1.02
2022-11-01T21:47:25.294Z,1.45
2022-11-01T21:49:52.594Z,0.88
2022-11-01T21:52:19.771Z,0.88
2022-11-01T21:54:47.996Z,1.00
2022-11-01T21:57:16.674Z,0.80
2022-11-01T21:59:44.051Z,1.00
2022-11-01T22:02:13.975Z,1.13
2022-11-01T22:04:42.481Z,0.98
2022-11-01T22:07:10.800Z,0.80
2022-11-01T22:09:38.419Z,0.90
2022-11-01T22:12:08.415Z,0.70
2022-11-01T22:14:35.399Z,0.70
2022-11-01T22:17:02.301Z,0.70
2022-11-01T22:19:29.081Z,0.70
2022-11-01T22:21:55.865Z,1.00
2022-11-01T22:24:23.546Z,0.80
2022-11-01T22:26:50.450Z,1.02
2022-11-01T22:29:17.556Z,0.88
2022-11-01T22:31:44.306Z,0.68
2022-11-01T22:34:11.167Z,1.40
2022-11-01T22:36:41.520Z,0.60
2022-11-01T22:39:21.323Z,0.63
2022-11-01T22:41:48.633Z,0.55
2022-11-01T22:44:25.178Z,0.52
2022-11-01T22:47:01.654Z,0.55
2022-11-01T22:49:34.370Z,0.50
2022-11-01T22:52:34.688Z,0.70
2022-11-01T22:55:10.485Z,0.45
2022-11-01T22:57:46.589Z,0.25
2022-11-01T23:00:37.171Z,0.50
2022-11-01T23:03:35.283Z,0.40
2022-11-01T23:06:32.403Z,0.73
2022-11-01T23:09:14.183Z,0.45
2022-11-01T23:12:11.599Z,0.45
2022-11-01T23:14:45.249Z,0.93
2022-11-01T23:17:31.570Z,0.88
2022-11-01T23:20:01.841Z,0.75
2022-11-01T23:22:35.985Z,0.80
2022-11-01T23:25:05.864Z,0.70
2022-11-01T23:27:32.723Z,0.73
2022-11-01T23:30:02.552Z,0.70
2022-11-01T23:32:31.154Z,0.80
2022-11-01T23:35:21.436Z,1.13
2022-11-01T23:37:51.556Z,1.00
2022-11-01T23:40:21.820Z,0.90
2022-11-01T23:42:49.124Z,0.80
2022-11-01T23:45:36.131Z,0.90
2022-11-01T23:48:02.989Z,1.33
2022-11-01T23:50:36.092Z,0.93
2022-11-01T23:53:14.714Z,2.65
2022-11-01T23:56:06.664Z,0.88
2022-11-01T23:58:35.777Z,0.93
